createdAt,value
2023-05-17T00:00:09.749Z,2.42
2023-05-17T00:00:21.426Z,2.40
2023-05-17T00:00:33.073Z,2.42
2023-05-17T00:00:44.783Z,2.50
2023-05-17T00:00:56.530Z,2.45
2023-05-17T00:01:08.215Z,2.35
2023-05-17T00:01:19.921Z,2.38
2023-05-17T00:01:31.592Z,2.40
2023-05-17T00:01:44.213Z,2.53
2023-05-17T00:01:56.561Z,2.40
2023-05-17T00:02:08.343Z,2.30
2023-05-17T00:02:20.010Z,2.40
2023-05-17T00:02:32.195Z,2.40
2023-05-17T00:02:43.946Z,2.47
2023-05-17T00:02:56.727Z,2.47
2023-05-17T00:03:08.544Z,2.50
2023-05-17T00:03:20.696Z,2.40
2023-05-17T00:03:32.417Z,2.53
2023-05-17T00:03:44.152Z,2.47
2023-05-17T00:03:56.588Z,2.20
2023-05-17T00:04:08.380Z,2.03
2023-05-17T00:04:21.118Z,2.28
2023-05-17T00:04:34.331Z,2.50
2023-05-17T00:04:46.147Z,2.45
2023-05-17T00:04:57.931Z,2.35
2023-05-17T00:05:11.537Z,2.50
2023-05-17T00:05:23.228Z,2.50
2023-05-17T00:05:34.902Z,2.60
2023-05-17T00:05:47.661Z,2.60
2023-05-17T00:05:59.429Z,2.45
2023-05-17T00:06:11.287Z,2.40
2023-05-17T00:06:23.004Z,2.30
2023-05-17T00:06:35.102Z,2.33
2023-05-17T00:06:46.913Z,2.50
2023-05-17T00:06:58.583Z,2.47
2023-05-17T00:07:10.512Z,2.40
2023-05-17T00:07:23.191Z,2.50
2023-05-17T00:07:34.914Z,2.60
2023-05-17T00:07:47.419Z,2.53
2023-05-17T00:07:59.123Z,2.53
2023-05-17T00:08:11.300Z,2.42
2023-05-17T00:08:23.094Z,2.45
2023-05-17T00:08:34.817Z,2.60
2023-05-17T00:08:47.493Z,2.53
2023-05-17T00:08:59.218Z,2.30
2023-05-17T00:09:10.923Z,2.40
2023-05-17T00:09:22.583Z,2.53
2023-05-17T00:09:34.269Z,2.33
2023-05-17T00:09:46.122Z,2.20
2023-05-17T00:09:57.812Z,2.13
2023-05-17T00:10:09.752Z,2.20
2023-05-17T00:10:22.413Z,2.28
2023-05-17T00:10:34.115Z,2.35
2023-05-17T00:10:45.805Z,2.10
2023-05-17T00:10:57.491Z,2.20
2023-05-17T00:11:09.143Z,2.25
2023-05-17T00:11:20.831Z,2.30
2023-05-17T00:11:32.587Z,2.22
2023-05-17T00:11:44.312Z,2.13
2023-05-17T00:11:57.028Z,2.15
2023-05-17T00:12:08.844Z,2.20
2023-05-17T00:12:20.569Z,2.15
2023-05-17T00:12:32.239Z,2.20
2023-05-17T00:12:43.911Z,2.33
2023-05-17T00:12:55.732Z,2.30
2023-05-17T00:13:07.418Z,2.17
2023-05-17T00:13:20.086Z,2.10
2023-05-17T00:13:31.792Z,2.40
2023-05-17T00:13:43.612Z,2.53
2023-05-17T00:13:55.408Z,2.40
2023-05-17T00:14:07.147Z,2.28
2023-05-17T00:14:18.836Z,2.30
2023-05-17T00:14:30.589Z,2.20
2023-05-17T00:14:42.274Z,2.30
2023-05-17T00:14:54.982Z,2.30
2023-05-17T00:15:07.287Z,2.33
2023-05-17T00:15:18.953Z,2.40
2023-05-17T00:15:30.675Z,2.38
2023-05-17T00:15:42.386Z,2.30
2023-05-17T00:15:54.062Z,2.30
2023-05-17T00:16:07.361Z,2.35
2023-05-17T00:16:19.058Z,2.53
2023-05-17T00:16:42.219Z,2.30
2023-05-17T00:16:53.878Z,2.10
2023-05-17T00:17:05.854Z,2.10
2023-05-17T00:17:17.451Z,2.17
2023-05-17T00:17:30.399Z,2.17
2023-05-17T00:17:42.099Z,2.30
2023-05-17T00:17:53.800Z,2.40
2023-05-17T00:18:05.594Z,2.40
2023-05-17T00:18:17.516Z,2.30
2023-05-17T00:18:29.416Z,2.40
2023-05-17T00:18:41.280Z,2.40
2023-05-17T00:18:54.166Z,2.42
2023-05-17T00:19:06.227Z,2.30
2023-05-17T00:19:18.003Z,2.33
2023-05-17T00:19:29.794Z,2.28
2023-05-17T00:19:42.875Z,2.20
2023-05-17T00:19:54.675Z,2.20
2023-05-17T00:20:08.433Z,2.30
2023-05-17T00:20:20.094Z,2.22
2023-05-17T00:20:31.811Z,2.25
2023-05-17T00:20:43.430Z,2.28
2023-05-17T00:20:55.026Z,2.30
2023-05-17T00:21:06.797Z,2.47
2023-05-17T00:21:18.448Z,2.50
2023-05-17T00:21:31.206Z,2.13
2023-05-17T00:21:42.884Z,1.90
2023-05-17T00:21:54.572Z,1.95
2023-05-17T00:22:06.266Z,2.08
2023-05-17T00:22:17.906Z,2.13
2023-05-17T00:22:29.567Z,2.17
2023-05-17T00:22:43.282Z,2.10
2023-05-17T00:22:54.909Z,2.17
2023-05-17T00:23:06.569Z,2.25
2023-05-17T00:23:18.292Z,2.22
2023-05-17T00:23:29.894Z,2.50
2023-05-17T00:23:41.483Z,2.35
2023-05-17T00:23:53.090Z,2.38
2023-05-17T00:24:05.410Z,2.15
2023-05-17T00:24:17.153Z,2.20
2023-05-17T00:24:29.776Z,2.30
2023-05-17T00:24:41.481Z,2.20
2023-05-17T00:24:53.211Z,2.15
2023-05-17T00:25:05.660Z,2.10
2023-05-17T00:25:17.370Z,2.10
2023-05-17T00:25:29.340Z,2.30
2023-05-17T00:25:43.008Z,2.30
2023-05-17T00:25:55.737Z,2.28
2023-05-17T00:26:07.416Z,2.20
2023-05-17T00:26:19.119Z,2.20
2023-05-17T00:26:30.852Z,2.28
2023-05-17T00:26:42.522Z,2.03
2023-05-17T00:26:54.239Z,2.10
2023-05-17T00:27:05.848Z,2.10
2023-05-17T00:27:17.522Z,2.10
2023-05-17T00:27:30.232Z,2.05
2023-05-17T00:27:41.895Z,2.10
2023-05-17T00:27:53.540Z,2.15
2023-05-17T00:28:05.508Z,2.10
2023-05-17T00:28:17.397Z,2.17
2023-05-17T00:28:29.065Z,2.10
2023-05-17T00:28:40.800Z,2.00
2023-05-17T00:28:52.512Z,2.05
2023-05-17T00:29:05.503Z,2.00
2023-05-17T00:29:17.113Z,2.10
2023-05-17T00:29:28.726Z,2.15
2023-05-17T00:29:40.365Z,2.20
2023-05-17T00:29:52.118Z,2.20
2023-05-17T00:30:04.314Z,2.47
2023-05-17T00:30:16.069Z,2.33
2023-05-17T00:30:28.713Z,2.13
2023-05-17T00:30:40.389Z,2.00
2023-05-17T00:30:52.022Z,2.03
2023-05-17T00:31:06.808Z,2.10
2023-05-17T00:31:18.406Z,2.00
2023-05-17T00:31:30.034Z,2.10
2023-05-17T00:31:42.692Z,2.08
2023-05-17T00:31:54.526Z,1.95
2023-05-17T00:32:06.858Z,1.80
2023-05-17T00:32:18.466Z,1.83
2023-05-17T00:32:30.276Z,1.90
2023-05-17T00:32:41.956Z,1.90
2023-05-17T00:32:53.754Z,2.05
2023-05-17T00:33:05.591Z,2.10
2023-05-17T00:33:18.255Z,2.20
2023-05-17T00:33:29.925Z,2.10
2023-05-17T00:33:41.612Z,2.10
2023-05-17T00:33:53.272Z,1.83
2023-05-17T00:34:04.946Z,1.88
2023-05-17T00:34:16.565Z,2.05
2023-05-17T00:34:28.264Z,2.15
2023-05-17T00:34:39.968Z,2.28
2023-05-17T00:34:53.973Z,2.30
2023-05-17T00:35:06.380Z,2.38
2023-05-17T00:35:18.221Z,2.13
2023-05-17T00:35:30.211Z,2.00
2023-05-17T00:35:42.078Z,2.00
2023-05-17T00:35:53.787Z,1.98
2023-05-17T00:36:05.992Z,2.03
2023-05-17T00:36:18.653Z,1.98
2023-05-17T00:36:30.912Z,2.00
2023-05-17T00:36:42.605Z,2.00
2023-05-17T00:36:54.295Z,2.00
2023-05-17T00:37:05.975Z,1.90
2023-05-17T00:37:17.600Z,2.03
2023-05-17T00:37:29.292Z,1.90
2023-05-17T00:37:41.333Z,1.85
2023-05-17T00:37:53.956Z,2.10
2023-05-17T00:38:05.964Z,2.17
2023-05-17T00:38:17.596Z,1.90
2023-05-17T00:38:29.470Z,2.08
2023-05-17T00:38:41.112Z,2.05
2023-05-17T00:38:52.684Z,2.13
2023-05-17T00:39:04.701Z,2.05
2023-05-17T00:39:16.453Z,2.00
2023-05-17T00:39:28.096Z,1.90
2023-05-17T00:39:40.854Z,2.00
2023-05-17T00:39:53.039Z,2.00
2023-05-17T00:40:05.883Z,2.00
2023-05-17T00:40:18.158Z,1.90
2023-05-17T00:40:29.805Z,1.80
2023-05-17T00:40:41.443Z,1.90
2023-05-17T00:40:54.178Z,2.00
2023-05-17T00:41:07.075Z,1.90
2023-05-17T00:41:18.795Z,1.88
2023-05-17T00:41:30.485Z,1.85
2023-05-17T00:41:42.265Z,1.95
2023-05-17T00:41:53.936Z,2.13
2023-05-17T00:42:06.351Z,2.05
2023-05-17T00:42:18.097Z,1.90
2023-05-17T00:42:30.833Z,1.98
2023-05-17T00:42:42.587Z,2.10
2023-05-17T00:42:54.265Z,1.92
2023-05-17T00:43:06.224Z,2.05
2023-05-17T00:43:17.986Z,2.00
2023-05-17T00:43:29.658Z,2.10
2023-05-17T00:43:41.774Z,2.00
2023-05-17T00:43:53.474Z,1.90
2023-05-17T00:44:05.624Z,2.00
2023-05-17T00:44:18.245Z,2.13
2023-05-17T00:44:29.963Z,2.03
2023-05-17T00:44:41.676Z,2.10
2023-05-17T00:44:53.318Z,2.10
2023-05-17T00:45:06.281Z,2.00
2023-05-17T00:45:17.898Z,2.00
2023-05-17T00:45:29.716Z,2.00
2023-05-17T00:45:41.439Z,2.00
2023-05-17T00:45:54.134Z,2.00
2023-05-17T00:46:05.850Z,2.00
2023-05-17T00:46:17.462Z,2.00
2023-05-17T00:46:29.184Z,2.08
2023-05-17T00:46:40.907Z,2.10
2023-05-17T00:46:52.533Z,2.00
2023-05-17T00:47:04.447Z,2.00
2023-05-17T00:47:17.036Z,2.10
2023-05-17T00:47:28.773Z,2.00
2023-05-17T00:47:40.754Z,2.00
2023-05-17T00:47:52.451Z,1.90
2023-05-17T00:48:04.949Z,1.88
2023-05-17T00:48:17.134Z,1.95
2023-05-17T00:48:29.392Z,1.92
2023-05-17T00:48:42.125Z,1.85
2023-05-17T00:48:54.230Z,1.90
2023-05-17T00:49:06.058Z,1.88
2023-05-17T00:49:17.868Z,2.00
2023-05-17T00:49:29.539Z,2.10
2023-05-17T00:49:41.211Z,2.05
2023-05-17T00:49:54.201Z,1.92
2023-05-17T00:50:06.937Z,2.00
2023-05-17T00:50:19.642Z,1.90
2023-05-17T00:50:31.384Z,1.90
2023-05-17T00:50:43.130Z,2.10
2023-05-17T00:50:56.025Z,2.25
2023-05-17T00:51:07.851Z,2.30
2023-05-17T00:51:20.109Z,2.13
2023-05-17T00:51:31.910Z,2.10
2023-05-17T00:51:44.586Z,2.00
2023-05-17T00:51:57.294Z,2.00
2023-05-17T00:52:08.994Z,1.90
2023-05-17T00:52:20.744Z,1.80
2023-05-17T00:52:32.463Z,1.80
2023-05-17T00:52:44.123Z,1.90
2023-05-17T00:52:56.037Z,2.00
2023-05-17T00:53:08.259Z,2.05
2023-05-17T00:53:21.003Z,2.00
2023-05-17T00:53:33.630Z,2.00
2023-05-17T00:53:45.374Z,2.00
2023-05-17T00:53:57.084Z,1.85
2023-05-17T00:54:09.201Z,1.75
2023-05-17T00:54:21.390Z,1.75
2023-05-17T00:54:33.614Z,1.80
2023-05-17T00:54:46.513Z,1.90
2023-05-17T00:54:58.173Z,2.08
2023-05-17T00:55:09.898Z,2.00
2023-05-17T00:55:21.951Z,2.00
2023-05-17T00:55:34.566Z,2.10
2023-05-17T00:55:46.337Z,2.15
2023-05-17T00:55:58.180Z,2.00
2023-05-17T00:56:09.856Z,1.80
2023-05-17T00:56:27.389Z,1.90
2023-05-17T00:56:39.309Z,2.08
2023-05-17T00:56:51.334Z,2.17
2023-05-17T00:57:03.955Z,2.22
2023-05-17T00:57:16.390Z,2.00
2023-05-17T00:57:29.254Z,2.00
2023-05-17T00:57:41.026Z,2.00
2023-05-17T00:57:53.638Z,2.05
2023-05-17T00:58:05.450Z,1.95
2023-05-17T00:58:17.173Z,1.88
2023-05-17T00:58:29.465Z,1.90
2023-05-17T00:58:41.162Z,2.00
2023-05-17T00:58:53.370Z,1.85
2023-05-17T00:59:05.515Z,1.95
2023-05-17T00:59:17.665Z,1.95
2023-05-17T00:59:29.671Z,1.90
2023-05-17T00:59:43.685Z,2.05
2023-05-17T00:59:56.166Z,2.15
2023-05-17T01:00:08.888Z,2.15
2023-05-17T01:00:20.913Z,1.95
2023-05-17T01:00:33.202Z,2.10
2023-05-17T01:00:44.916Z,2.00
2023-05-17T01:00:56.638Z,2.03
2023-05-17T01:01:09.205Z,2.08
2023-05-17T01:01:20.965Z,2.20
2023-05-17T01:01:32.751Z,2.13
2023-05-17T01:01:44.703Z,2.15
2023-05-17T01:01:56.549Z,2.22
2023-05-17T01:02:08.314Z,2.10
2023-05-17T01:02:19.949Z,1.80
2023-05-17T01:02:31.880Z,1.90
2023-05-17T01:02:44.734Z,1.90
2023-05-17T01:02:57.505Z,2.20
2023-05-17T01:03:09.362Z,2.35
2023-05-17T01:03:22.630Z,2.15
2023-05-17T01:03:34.420Z,1.80
2023-05-17T01:03:46.453Z,1.70
2023-05-17T01:03:58.428Z,1.90
2023-05-17T01:04:10.840Z,2.00
2023-05-17T01:04:22.684Z,1.90
2023-05-17T01:04:35.348Z,1.80
2023-05-17T01:04:48.046Z,2.03
2023-05-17T01:05:01.119Z,2.10
2023-05-17T01:05:12.805Z,2.00
2023-05-17T01:05:24.494Z,2.00
2023-05-17T01:05:36.272Z,1.95
2023-05-17T01:05:48.133Z,1.90
2023-05-17T01:05:59.779Z,1.85
2023-05-17T01:06:11.370Z,1.90
2023-05-17T01:06:24.048Z,1.90
2023-05-17T01:06:36.093Z,1.90
2023-05-17T01:06:47.733Z,1.90
2023-05-17T01:06:59.394Z,1.90
2023-05-17T01:07:11.052Z,2.00
2023-05-17T01:07:22.727Z,2.25
2023-05-17T01:07:34.420Z,2.30
2023-05-17T01:07:46.066Z,2.17
2023-05-17T01:07:58.757Z,1.90
2023-05-17T01:08:10.922Z,2.00
2023-05-17T01:08:22.607Z,2.10
2023-05-17T01:08:34.837Z,2.00
2023-05-17T01:08:46.510Z,1.90
2023-05-17T01:08:58.130Z,1.77
2023-05-17T01:09:11.054Z,1.70
2023-05-17T01:09:22.786Z,1.85
2023-05-17T01:09:34.462Z,2.00
2023-05-17T01:09:46.470Z,2.00
2023-05-17T01:09:58.640Z,1.80
2023-05-17T01:10:10.902Z,1.70
2023-05-17T01:10:23.928Z,1.75
2023-05-17T01:10:40.610Z,1.80
2023-05-17T01:10:56.144Z,1.70
2023-05-17T01:11:18.009Z,1.70
2023-05-17T01:11:32.802Z,1.90
2023-05-17T01:11:50.644Z,1.80
2023-05-17T01:12:09.379Z,1.98
2023-05-17T01:12:29.724Z,1.90
2023-05-17T01:12:54.436Z,1.83
2023-05-17T01:13:10.024Z,1.95
2023-05-17T01:13:25.279Z,1.92
2023-05-17T01:13:41.222Z,2.10
2023-05-17T01:14:01.242Z,2.10
2023-05-17T01:14:21.275Z,2.22
2023-05-17T01:14:41.580Z,2.08
2023-05-17T01:14:58.779Z,2.15
2023-05-17T01:15:15.586Z,2.08
2023-05-17T01:15:30.509Z,2.03
2023-05-17T01:15:45.752Z,2.10
2023-05-17T01:16:02.947Z,2.08
2023-05-17T01:16:19.892Z,2.00
2023-05-17T01:16:34.492Z,2.00
2023-05-17T01:16:50.608Z,2.00
2023-05-17T01:17:06.435Z,2.03
2023-05-17T01:17:24.184Z,2.00
2023-05-17T01:17:41.328Z,2.00
2023-05-17T01:18:00.271Z,1.90
2023-05-17T01:18:17.317Z,1.92
2023-05-17T01:18:37.567Z,2.15
2023-05-17T01:18:53.453Z,2.17
2023-05-17T01:19:13.573Z,2.30
2023-05-17T01:19:41.662Z,1.95
2023-05-17T01:20:07.476Z,1.85
2023-05-17T01:20:22.307Z,2.00
2023-05-17T01:20:38.107Z,2.22
2023-05-17T01:20:51.192Z,2.05
2023-05-17T01:21:08.151Z,2.00
2023-05-17T01:21:41.458Z,2.00
2023-05-17T01:22:01.779Z,1.98
2023-05-17T01:22:20.574Z,2.10
2023-05-17T01:22:39.493Z,2.00
2023-05-17T01:22:53.960Z,1.85
2023-05-17T01:23:27.045Z,1.80
2023-05-17T01:23:45.819Z,2.38
2023-05-17T01:24:06.668Z,2.08
2023-05-17T01:24:26.293Z,1.77
2023-05-17T01:24:45.761Z,1.88
2023-05-17T01:25:06.405Z,2.08
2023-05-17T01:25:33.427Z,1.80
2023-05-17T01:25:54.788Z,1.90
2023-05-17T01:26:10.993Z,1.90
2023-05-17T01:26:37.689Z,1.90
2023-05-17T01:26:51.256Z,2.00
2023-05-17T01:27:05.175Z,2.05
2023-05-17T01:27:17.357Z,1.95
2023-05-17T01:27:30.606Z,1.73
2023-05-17T01:27:43.563Z,1.70
2023-05-17T01:27:58.040Z,1.70
2023-05-17T01:28:11.136Z,2.08
2023-05-17T01:28:24.458Z,2.22
2023-05-17T01:28:37.621Z,2.30
2023-05-17T01:28:53.146Z,2.10
2023-05-17T01:29:05.741Z,2.10
2023-05-17T01:29:18.791Z,2.22
2023-05-17T01:29:32.172Z,2.00
2023-05-17T01:29:45.889Z,1.95
2023-05-17T01:29:58.234Z,2.00
2023-05-17T01:30:12.449Z,2.00
2023-05-17T01:30:26.456Z,2.00
2023-05-17T01:30:38.708Z,2.10
2023-05-17T01:30:51.707Z,2.03
2023-05-17T01:31:03.845Z,2.05
2023-05-17T01:31:17.368Z,2.03
2023-05-17T01:31:29.363Z,2.20
2023-05-17T01:31:41.986Z,2.20
2023-05-17T01:31:54.077Z,2.03
2023-05-17T01:32:06.855Z,1.75
2023-05-17T01:32:18.951Z,1.90
2023-05-17T01:32:31.161Z,2.05
2023-05-17T01:32:43.934Z,2.00
2023-05-17T01:32:57.607Z,2.08
2023-05-17T01:33:10.106Z,2.13
2023-05-17T01:33:22.182Z,2.20
2023-05-17T01:33:34.521Z,2.22
2023-05-17T01:33:46.427Z,2.25
2023-05-17T01:33:59.368Z,2.10
2023-05-17T01:34:11.335Z,2.10
2023-05-17T01:34:26.365Z,2.10
2023-05-17T01:34:38.134Z,2.10
2023-05-17T01:34:49.780Z,1.98
2023-05-17T01:35:04.289Z,1.92
2023-05-17T01:35:16.190Z,1.90
2023-05-17T01:35:28.198Z,1.90
2023-05-17T01:35:41.114Z,2.00
2023-05-17T01:35:52.756Z,2.00
2023-05-17T01:36:05.049Z,2.05
2023-05-17T01:36:16.714Z,1.90
2023-05-17T01:36:28.411Z,1.88
2023-05-17T01:36:40.138Z,1.90
2023-05-17T01:36:52.101Z,1.95
2023-05-17T01:37:04.013Z,2.10
2023-05-17T01:37:17.082Z,2.10
2023-05-17T01:37:28.692Z,2.10
2023-05-17T01:37:40.372Z,2.10
2023-05-17T01:37:52.690Z,2.10
2023-05-17T01:38:04.405Z,2.17
2023-05-17T01:38:16.152Z,2.15
2023-05-17T01:38:27.772Z,2.13
2023-05-17T01:38:40.385Z,2.10
2023-05-17T01:38:52.124Z,2.15
2023-05-17T01:39:03.874Z,2.10
2023-05-17T01:39:15.537Z,2.28
2023-05-17T01:39:28.132Z,2.20
2023-05-17T01:39:41.428Z,1.90
2023-05-17T01:39:53.104Z,1.80
2023-05-17T01:40:06.245Z,2.03
2023-05-17T01:40:19.890Z,2.03
2023-05-17T01:40:34.335Z,1.90
2023-05-17T01:40:56.700Z,1.90
2023-05-17T01:41:13.088Z,1.92
2023-05-17T01:41:29.215Z,1.95
2023-05-17T01:41:44.809Z,2.05
2023-05-17T01:42:01.238Z,2.15
2023-05-17T01:42:21.207Z,2.08
2023-05-17T01:42:33.722Z,2.00
2023-05-17T01:42:47.462Z,2.00
2023-05-17T01:43:10.829Z,1.98
2023-05-17T01:43:27.440Z,1.90
2023-05-17T01:43:44.064Z,1.95
2023-05-17T01:44:00.893Z,1.90
2023-05-17T01:44:18.108Z,1.80
2023-05-17T01:44:44.750Z,1.88
2023-05-17T01:45:00.698Z,2.05
2023-05-17T01:45:17.515Z,2.10
2023-05-17T01:45:32.729Z,2.20
2023-05-17T01:45:47.895Z,2.08
2023-05-17T01:46:05.681Z,2.00
2023-05-17T01:46:24.245Z,1.90
2023-05-17T01:46:40.773Z,2.10
2023-05-17T01:46:55.362Z,2.13
2023-05-17T01:47:12.728Z,2.00
2023-05-17T01:47:29.897Z,1.90
2023-05-17T01:47:45.903Z,2.03
2023-05-17T01:48:06.408Z,2.10
2023-05-17T01:48:22.812Z,1.98
2023-05-17T01:48:37.581Z,1.85
2023-05-17T01:48:52.859Z,2.22
2023-05-17T01:49:09.519Z,2.40
2023-05-17T01:49:22.894Z,2.13
2023-05-17T01:49:38.643Z,2.20
2023-05-17T01:49:53.296Z,2.13
2023-05-17T01:50:07.168Z,2.17
2023-05-17T01:50:23.722Z,2.20
2023-05-17T01:50:36.364Z,2.20
2023-05-17T01:50:49.013Z,2.13
2023-05-17T01:51:02.114Z,2.25
2023-05-17T01:51:17.695Z,2.20
2023-05-17T01:51:33.002Z,2.25
2023-05-17T01:51:48.831Z,2.25
2023-05-17T01:52:06.488Z,2.20
2023-05-17T01:52:22.293Z,2.22
2023-05-17T01:52:39.305Z,2.05
2023-05-17T01:52:54.284Z,2.05
2023-05-17T01:53:08.956Z,2.00
2023-05-17T01:53:23.440Z,2.00
2023-05-17T01:53:38.379Z,2.10
2023-05-17T01:53:56.013Z,2.00
2023-05-17T01:54:12.062Z,2.00
2023-05-17T01:54:26.986Z,2.20
2023-05-17T01:54:43.809Z,2.17
2023-05-17T01:55:03.448Z,2.13
2023-05-17T01:55:21.013Z,2.20
2023-05-17T01:55:39.059Z,2.25
2023-05-17T01:55:51.615Z,2.25
2023-05-17T01:56:05.021Z,2.20
2023-05-17T01:56:21.087Z,1.85
2023-05-17T01:56:34.607Z,1.80
2023-05-17T01:56:50.227Z,1.85
2023-05-17T01:57:05.350Z,1.90
2023-05-17T01:57:20.758Z,2.10
2023-05-17T01:57:34.107Z,2.22
2023-05-17T01:57:49.011Z,2.13
2023-05-17T01:58:02.311Z,2.10
2023-05-17T01:58:14.051Z,2.10
2023-05-17T01:58:27.176Z,2.17
2023-05-17T01:58:43.626Z,2.25
2023-05-17T01:58:57.008Z,2.13
2023-05-17T01:59:09.956Z,2.10
2023-05-17T01:59:25.165Z,2.15
2023-05-17T01:59:38.551Z,2.13
2023-05-17T01:59:52.188Z,2.20
2023-05-17T02:00:06.514Z,2.00
2023-05-17T02:00:19.620Z,1.90
2023-05-17T02:00:31.332Z,2.20
2023-05-17T02:00:44.337Z,2.15
2023-05-17T02:00:56.970Z,2.00
2023-05-17T02:01:09.967Z,1.98
2023-05-17T02:01:21.867Z,2.00
2023-05-17T02:01:34.690Z,2.10
2023-05-17T02:01:47.588Z,2.15
2023-05-17T02:02:03.917Z,2.22
2023-05-17T02:02:15.755Z,2.20
2023-05-17T02:02:28.485Z,2.28
2023-05-17T02:02:40.271Z,2.53
2023-05-17T02:02:52.034Z,2.50
2023-05-17T02:03:03.861Z,2.37
2023-05-17T02:03:17.788Z,2.20
2023-05-17T02:03:29.621Z,2.22
2023-05-17T02:03:41.411Z,2.25
2023-05-17T02:03:53.108Z,2.28
2023-05-17T02:04:06.161Z,2.22
2023-05-17T02:04:18.846Z,2.25
2023-05-17T02:04:30.952Z,2.25
2023-05-17T02:04:42.745Z,2.20
2023-05-17T02:04:54.875Z,2.25
2023-05-17T02:05:08.328Z,2.20
2023-05-17T02:05:20.344Z,2.20
2023-05-17T02:05:32.032Z,2.33
2023-05-17T02:05:43.813Z,2.25
2023-05-17T02:05:55.450Z,2.25
2023-05-17T02:06:07.472Z,2.13
2023-05-17T02:06:19.114Z,2.30
2023-05-17T02:06:30.825Z,2.25
2023-05-17T02:06:43.452Z,2.20
2023-05-17T02:06:55.106Z,2.30
2023-05-17T02:07:06.724Z,2.35
2023-05-17T02:07:18.773Z,2.40
2023-05-17T02:07:30.935Z,2.25
2023-05-17T02:07:42.626Z,2.20
2023-05-17T02:07:54.297Z,2.30
2023-05-17T02:08:07.228Z,2.40
2023-05-17T02:08:18.893Z,2.38
2023-05-17T02:08:30.710Z,2.35
2023-05-17T02:08:42.440Z,2.20
2023-05-17T02:08:54.072Z,2.20
2023-05-17T02:09:05.781Z,2.38
2023-05-17T02:09:17.600Z,2.40
2023-05-17T02:09:30.890Z,2.58
2023-05-17T02:09:42.552Z,2.30
2023-05-17T02:09:54.198Z,2.40
2023-05-17T02:10:06.936Z,2.58
2023-05-17T02:10:18.787Z,2.83
2023-05-17T02:10:30.519Z,2.70
2023-05-17T02:10:42.263Z,2.42
2023-05-17T02:10:54.957Z,2.53
2023-05-17T02:11:06.638Z,2.70
2023-05-17T02:11:20.991Z,2.80
2023-05-17T02:11:32.630Z,2.70
2023-05-17T02:11:44.359Z,2.63
2023-05-17T02:11:57.440Z,2.50
2023-05-17T02:12:09.136Z,2.42
2023-05-17T02:12:21.724Z,2.30
2023-05-17T02:12:33.337Z,2.35
2023-05-17T02:12:45.296Z,2.40
2023-05-17T02:12:56.918Z,2.50
2023-05-17T02:13:08.602Z,2.70
2023-05-17T02:13:20.278Z,2.83
2023-05-17T02:13:31.964Z,2.55
2023-05-17T02:13:43.571Z,2.58
2023-05-17T02:13:56.176Z,2.55
2023-05-17T02:14:07.871Z,2.60
2023-05-17T02:14:19.560Z,2.70
2023-05-17T02:14:31.299Z,2.60
2023-05-17T02:14:42.977Z,2.58
2023-05-17T02:14:54.644Z,2.60
2023-05-17T02:15:08.281Z,2.65
2023-05-17T02:15:19.906Z,2.55
2023-05-17T02:15:33.296Z,2.42
2023-05-17T02:15:44.941Z,2.42
2023-05-17T02:16:00.481Z,2.47
2023-05-17T02:16:12.146Z,2.70
2023-05-17T02:16:23.814Z,2.88
2023-05-17T02:16:35.433Z,2.58
2023-05-17T02:16:47.049Z,2.47
2023-05-17T02:16:58.668Z,2.53
2023-05-17T02:17:11.333Z,2.60
2023-05-17T02:17:23.103Z,2.55
2023-05-17T02:17:34.894Z,2.50
2023-05-17T02:17:46.672Z,2.60
2023-05-17T02:17:58.510Z,2.60
2023-05-17T02:18:11.745Z,2.60
2023-05-17T02:18:23.784Z,2.55
2023-05-17T02:18:37.716Z,2.70
2023-05-17T02:18:50.890Z,2.58
2023-05-17T02:19:02.684Z,2.53
2023-05-17T02:19:15.083Z,2.63
2023-05-17T02:19:26.915Z,2.80
2023-05-17T02:19:38.580Z,2.70
2023-05-17T02:19:50.277Z,2.50
2023-05-17T02:20:01.985Z,2.60
2023-05-17T02:20:14.996Z,2.60
2023-05-17T02:20:26.784Z,2.65
2023-05-17T02:20:38.484Z,2.70
2023-05-17T02:20:50.145Z,2.60
2023-05-17T02:21:01.933Z,2.63
2023-05-17T02:21:13.587Z,2.63
2023-05-17T02:21:26.256Z,2.67
2023-05-17T02:21:37.921Z,2.75
2023-05-17T02:21:49.594Z,2.85
2023-05-17T02:22:01.267Z,2.80
2023-05-17T02:22:12.929Z,2.80
2023-05-17T02:22:24.640Z,2.60
2023-05-17T02:22:36.257Z,2.63
2023-05-17T02:22:47.955Z,2.83
2023-05-17T02:23:00.684Z,2.90
2023-05-17T02:23:12.319Z,2.75
2023-05-17T02:23:25.101Z,2.78
2023-05-17T02:23:36.939Z,2.72
2023-05-17T02:23:48.802Z,2.80
2023-05-17T02:24:00.478Z,2.70
2023-05-17T02:24:12.158Z,2.67
2023-05-17T02:24:24.850Z,2.90
2023-05-17T02:24:36.468Z,3.00
2023-05-17T02:24:48.939Z,2.80
2023-05-17T02:25:00.710Z,2.80
2023-05-17T02:25:12.505Z,2.85
2023-05-17T02:25:24.159Z,2.80
2023-05-17T02:25:35.946Z,2.70
2023-05-17T02:25:48.682Z,2.80
2023-05-17T02:26:00.636Z,2.67
2023-05-17T02:26:12.229Z,2.78
2023-05-17T02:26:23.978Z,2.60
2023-05-17T02:26:35.656Z,2.70
2023-05-17T02:26:47.308Z,2.67
2023-05-17T02:27:01.844Z,2.53
2023-05-17T02:27:13.565Z,2.63
2023-05-17T02:27:25.390Z,2.78
2023-05-17T02:27:37.101Z,2.70
2023-05-17T02:27:48.814Z,2.80
2023-05-17T02:28:00.534Z,2.70
2023-05-17T02:28:12.206Z,2.60
2023-05-17T02:28:23.800Z,2.78
2023-05-17T02:28:35.482Z,3.00
2023-05-17T02:28:47.164Z,3.13
2023-05-17T02:28:59.999Z,3.10
2023-05-17T02:29:11.650Z,3.03
2023-05-17T02:29:23.314Z,2.95
2023-05-17T02:29:34.969Z,3.10
2023-05-17T02:29:46.632Z,3.05
2023-05-17T02:29:58.502Z,3.17
2023-05-17T02:30:10.792Z,3.13
2023-05-17T02:30:23.433Z,2.90
2023-05-17T02:30:35.127Z,2.90
2023-05-17T02:30:46.770Z,3.00
2023-05-17T02:30:58.454Z,2.85
2023-05-17T02:31:10.288Z,2.67
2023-05-17T02:31:22.136Z,2.60
2023-05-17T02:31:34.093Z,2.63
2023-05-17T02:31:46.138Z,2.80
2023-05-17T02:31:58.863Z,2.90
2023-05-17T02:32:11.103Z,2.90
2023-05-17T02:32:22.998Z,2.80
2023-05-17T02:32:34.869Z,2.90
2023-05-17T02:32:46.767Z,3.13
2023-05-17T02:32:58.698Z,3.38
2023-05-17T02:33:10.755Z,3.30
2023-05-17T02:33:22.562Z,3.05
2023-05-17T02:33:35.817Z,2.80
2023-05-17T02:33:47.495Z,2.80
2023-05-17T02:33:59.314Z,2.90
2023-05-17T02:34:11.211Z,2.97
2023-05-17T02:34:22.895Z,2.88
2023-05-17T02:34:34.508Z,3.00
2023-05-17T02:34:46.157Z,3.00
2023-05-17T02:34:57.908Z,2.90
2023-05-17T02:35:10.725Z,2.80
2023-05-17T02:35:22.480Z,2.88
2023-05-17T02:35:34.418Z,2.80
2023-05-17T02:35:46.096Z,3.00
2023-05-17T02:35:57.710Z,3.03
2023-05-17T02:36:09.509Z,3.17
2023-05-17T02:36:21.748Z,3.00
2023-05-17T02:36:33.554Z,3.20
2023-05-17T02:36:46.349Z,3.20
2023-05-17T02:36:57.962Z,3.08
2023-05-17T02:37:09.662Z,3.05
2023-05-17T02:37:21.291Z,3.15
2023-05-17T02:37:32.965Z,3.10
2023-05-17T02:37:44.655Z,3.05
2023-05-17T02:37:56.365Z,3.00
2023-05-17T02:38:08.080Z,3.10
2023-05-17T02:38:20.723Z,3.25
2023-05-17T02:38:32.477Z,3.20
2023-05-17T02:38:44.202Z,3.13
2023-05-17T02:38:55.838Z,3.05
2023-05-17T02:39:07.470Z,3.10
2023-05-17T02:39:20.458Z,3.22
2023-05-17T02:39:32.578Z,3.10
2023-05-17T02:39:44.349Z,3.25
2023-05-17T02:39:56.076Z,3.08
2023-05-17T02:40:09.861Z,3.03
2023-05-17T02:40:21.685Z,3.13
2023-05-17T02:40:33.422Z,3.20
2023-05-17T02:40:45.061Z,3.10
2023-05-17T02:40:57.684Z,2.88
2023-05-17T02:41:09.543Z,2.80
2023-05-17T02:41:21.194Z,3.00
2023-05-17T02:41:32.813Z,3.15
2023-05-17T02:41:45.761Z,3.25
2023-05-17T02:41:57.382Z,3.30
2023-05-17T02:42:10.547Z,3.20
2023-05-17T02:42:22.151Z,3.05
2023-05-17T02:42:34.750Z,3.08
2023-05-17T02:42:46.444Z,3.28
2023-05-17T02:42:58.243Z,3.33
2023-05-17T02:43:10.008Z,3.42
2023-05-17T02:43:21.668Z,3.25
2023-05-17T02:43:33.364Z,3.13
2023-05-17T02:43:45.406Z,3.45
2023-05-17T02:43:57.051Z,3.60
2023-05-17T02:44:09.701Z,3.40
2023-05-17T02:44:21.378Z,3.30
2023-05-17T02:44:33.011Z,3.38
2023-05-17T02:44:44.785Z,3.50
2023-05-17T02:44:57.925Z,3.42
2023-05-17T02:45:10.273Z,3.30
2023-05-17T02:45:21.982Z,3.38
2023-05-17T02:45:33.769Z,3.47
2023-05-17T02:45:46.445Z,3.28
2023-05-17T02:45:58.112Z,3.10
2023-05-17T02:46:09.832Z,3.22
2023-05-17T02:46:21.583Z,3.25
2023-05-17T02:46:33.235Z,3.55
2023-05-17T02:46:44.858Z,3.50
2023-05-17T02:46:56.458Z,3.28
2023-05-17T02:47:08.195Z,3.05
2023-05-17T02:47:21.255Z,3.33
2023-05-17T02:47:33.973Z,3.30
2023-05-17T02:47:45.802Z,3.17
2023-05-17T02:47:57.571Z,3.25
2023-05-17T02:48:09.318Z,3.35
2023-05-17T02:48:21.017Z,3.33
2023-05-17T02:48:32.729Z,3.33
2023-05-17T02:48:44.533Z,3.30
2023-05-17T02:48:56.161Z,3.40
2023-05-17T02:49:08.827Z,3.30
2023-05-17T02:49:20.539Z,3.38
2023-05-17T02:49:32.205Z,3.17
2023-05-17T02:49:43.878Z,3.30
2023-05-17T02:49:55.708Z,3.38
2023-05-17T02:50:07.977Z,3.20
2023-05-17T02:50:19.855Z,3.17
2023-05-17T02:50:32.551Z,3.28
2023-05-17T02:50:44.277Z,3.28
2023-05-17T02:50:55.942Z,3.30
2023-05-17T02:51:07.676Z,3.33
2023-05-17T02:51:22.065Z,3.53
2023-05-17T02:51:33.742Z,3.55
2023-05-17T02:51:45.486Z,3.47
2023-05-17T02:51:58.137Z,3.50